createdAt,value
2017-10-21T00:00:57.074Z,33.33
2017-10-21T00:02:09.717Z,33.42
2017-10-21T00:03:22.038Z,33.14
2017-10-21T00:04:34.350Z,33.23
2017-10-21T00:05:46.308Z,33.33
2017-10-21T00:06:58.907Z,33.33
2017-10-21T00:08:11.237Z,33.04
2017-10-21T00:09:23.869Z,32.85
2017-10-21T00:10:36.744Z,33.23
2017-10-21T00:11:49.062Z,33.33
2017-10-21T00:13:01.681Z,33.14
2017-10-21T00:14:14.292Z,33.23
2017-10-21T00:15:26.951Z,33.33
2017-10-21T00:16:39.585Z,32.95
2017-10-21T00:17:52.235Z,32.95
2017-10-21T00:19:04.867Z,32.66
2017-10-21T00:20:17.179Z,32.66
2017-10-21T00:21:29.500Z,32.66
2017-10-21T00:22:42.122Z,32.66
2017-10-21T00:23:54.413Z,32.56
2017-10-21T00:25:07.051Z,32.75
2017-10-21T00:26:19.360Z,32.85
2017-10-21T00:27:31.707Z,32.77
2017-10-21T00:28:44.381Z,32.96
2017-10-21T00:29:57.015Z,32.68
2017-10-21T00:31:09.311Z,32.87
2017-10-21T00:32:21.859Z,32.48
2017-10-21T00:33:34.533Z,32.77
2017-10-21T00:34:46.833Z,32.68
2017-10-21T00:35:59.470Z,32.58
2017-10-21T00:37:11.462Z,32.58
2017-10-21T00:38:23.765Z,32.58
2017-10-21T00:39:35.736Z,32.68
2017-10-21T00:40:48.032Z,32.48
2017-10-21T00:42:00.637Z,32.2
2017-10-21T00:43:12.947Z,32.1
2017-10-21T00:44:24.947Z,32.2
2017-10-21T00:45:37.571Z,32.58
2017-10-21T00:46:50.210Z,32.48
2017-10-21T00:48:02.848Z,32.2
2017-10-21T00:49:15.170Z,32.29
2017-10-21T00:50:27.800Z,32.1
2017-10-21T00:51:40.444Z,32.01
2017-10-21T00:52:53.080Z,32.1
2017-10-21T00:54:05.701Z,32.1
2017-10-21T00:55:18.326Z,31.92
2017-10-21T00:56:30.975Z,32.01
2017-10-21T00:57:43.619Z,32.2
2017-10-21T00:58:56.269Z,32.01
2017-10-21T01:00:08.287Z,32.1
2017-10-21T01:01:20.632Z,32.01
2017-10-21T01:02:33.251Z,32.01
2017-10-21T01:03:45.872Z,32.1
2017-10-21T01:04:58.520Z,32.01
2017-10-21T01:06:10.492Z,32.1
2017-10-21T01:07:22.806Z,32.01
2017-10-21T01:08:34.823Z,32.01
2017-10-21T01:09:47.468Z,32.01
2017-10-21T01:11:00.093Z,32.1
2017-10-21T01:12:12.747Z,32.1
2017-10-21T01:13:25.377Z,32.1
2017-10-21T01:14:38.023Z,32.1
2017-10-21T01:15:50.640Z,32.29
2017-10-21T01:17:03.269Z,32.2
2017-10-21T01:18:15.911Z,32.29
2017-10-21T01:19:27.904Z,32.1
2017-10-21T01:20:40.548Z,32.29
2017-10-21T01:21:52.858Z,32.48
2017-10-21T01:23:05.503Z,32.39
2017-10-21T01:24:18.148Z,32.48
2017-10-21T01:25:30.805Z,32.48
2017-10-21T01:26:43.146Z,32.2
2017-10-21T01:27:55.767Z,32.29
2017-10-21T01:29:08.434Z,32.29
2017-10-21T01:30:21.079Z,32.29
2017-10-21T01:31:33.394Z,32.2
2017-10-21T01:32:45.376Z,32.48
2017-10-21T01:33:57.988Z,32.58
2017-10-21T01:35:10.599Z,32.48
2017-10-21T01:36:22.580Z,32.68
2017-10-21T01:37:34.876Z,32.58
2017-10-21T01:38:47.491Z,32.48
2017-10-21T01:39:59.781Z,32.87
2017-10-21T01:41:11.777Z,32.77
2017-10-21T01:42:24.391Z,32.87
2017-10-21T01:43:37.015Z,32.96
2017-10-21T01:44:49.338Z,33.06
2017-10-21T01:46:01.665Z,33.15
2017-10-21T01:47:14.293Z,33.23
2017-10-21T01:48:26.616Z,33.34
2017-10-21T01:49:38.933Z,33.44
2017-10-21T01:50:51.557Z,33.44
2017-10-21T01:52:04.216Z,33.53
2017-10-21T01:53:16.837Z,33.61
2017-10-21T01:54:29.490Z,33.61
2017-10-21T01:55:41.806Z,33.9
2017-10-21T01:56:54.452Z,33.9
2017-10-21T01:58:07.084Z,33.9
2017-10-21T01:59:19.737Z,34.18
2017-10-21T02:00:31.722Z,33.8
2017-10-21T02:01:44.017Z,34.28
2017-10-21T02:02:56.639Z,34.38
2017-10-21T02:04:09.283Z,34.38
2017-10-21T02:05:21.944Z,34.38
2017-10-21T02:06:34.261Z,34.28
2017-10-21T02:07:46.892Z,34.18
2017-10-21T02:08:59.496Z,34.18
2017-10-21T02:10:11.835Z,34.38
2017-10-21T02:11:24.468Z,34.38
2017-10-21T02:12:37.122Z,34.18
2017-10-21T02:13:49.737Z,34.47
2017-10-21T02:15:02.047Z,34.47
2017-10-21T02:16:14.984Z,34.47
2017-10-21T02:17:27.257Z,34.28
2017-10-21T02:18:39.583Z,34.47
2017-10-21T02:19:52.221Z,34.47
2017-10-21T02:21:04.776Z,34.38
2017-10-21T02:22:17.418Z,34.38
2017-10-21T02:23:30.057Z,34.18
2017-10-21T02:24:42.391Z,34.47
2017-10-21T02:25:54.377Z,34.47
2017-10-21T02:27:07.040Z,34.66
2017-10-21T02:28:19.646Z,34.47
2017-10-21T02:29:31.938Z,34.66
2017-10-21T02:30:44.580Z,34.56
2017-10-21T02:31:57.184Z,34.66
2017-10-21T02:33:09.823Z,34.66
2017-10-21T02:34:22.451Z,34.47
2017-10-21T02:35:34.749Z,34.66
2017-10-21T02:36:47.055Z,34.66
2017-10-21T02:37:59.404Z,34.56
2017-10-21T02:39:12.050Z,34.66
2017-10-21T02:40:24.678Z,34.56
2017-10-21T02:41:36.678Z,34.56
2017-10-21T02:42:48.697Z,34.66
2017-10-21T02:44:00.376Z,34.56
2017-10-21T02:45:12.684Z,34.38
2017-10-21T02:46:25.309Z,34.56
2017-10-21T02:47:37.294Z,34.45
2017-10-21T02:48:49.593Z,34.55
2017-10-21T02:50:02.196Z,34.47
2017-10-21T02:51:14.511Z,34.47
2017-10-21T02:52:26.824Z,34.47
2017-10-21T02:53:39.682Z,34.45
2017-10-21T02:54:51.998Z,34.45
2017-10-21T02:56:04.299Z,34.38
2017-10-21T02:57:16.637Z,34.56
2017-10-21T02:58:28.631Z,34.74
2017-10-21T02:59:40.931Z,34.55
2017-10-21T03:00:53.554Z,34.83
2017-10-21T03:02:05.217Z,35.12
2017-10-21T03:03:17.516Z,35.12
2017-10-21T03:04:30.116Z,35.31
2017-10-21T03:05:42.734Z,35.6
2017-10-21T03:06:55.345Z,35.78
2017-10-21T03:08:07.993Z,35.97
2017-10-21T03:09:20.307Z,35.78
2017-10-21T03:10:32.615Z,35.97
2017-10-21T03:11:44.908Z,35.97
2017-10-21T03:12:57.203Z,36.55
2017-10-21T03:14:09.504Z,36.93
2017-10-21T03:15:22.145Z,36.83
2017-10-21T03:16:34.796Z,37.12
2017-10-21T03:17:47.418Z,37.12
2017-10-21T03:19:00.060Z,36.93
2017-10-21T03:20:12.701Z,37.3
2017-10-21T03:21:25.336Z,37.49
2017-10-21T03:22:37.973Z,37.38
2017-10-21T03:23:50.643Z,37.76
2017-10-21T03:25:03.302Z,37.67
2017-10-21T03:26:15.612Z,37.67
2017-10-21T03:27:28.296Z,37.76
2017-10-21T03:28:40.608Z,37.48
2017-10-21T03:29:52.895Z,37.48
2017-10-21T03:31:05.524Z,37.29
2017-10-21T03:32:18.144Z,36.91
2017-10-21T03:33:30.435Z,37.1
2017-10-21T03:34:43.078Z,37.19
2017-10-21T03:35:55.699Z,37.29
2017-10-21T03:37:08.312Z,36.81
2017-10-21T03:38:20.954Z,36.81
2017-10-21T03:39:33.603Z,36.62
2017-10-21T03:40:46.236Z,36.43
2017-10-21T03:41:58.569Z,36.33
2017-10-21T03:43:10.894Z,36.05
2017-10-21T03:44:23.540Z,35.86
2017-10-21T03:45:35.557Z,35.96
2017-10-21T03:46:48.199Z,35.67
2017-10-21T03:48:00.827Z,35.58
2017-10-21T03:49:13.445Z,35.48
2017-10-21T03:50:25.422Z,35.1
2017-10-21T03:51:38.052Z,35
2017-10-21T03:52:50.016Z,34.92
2017-10-21T03:54:02.681Z,34.91
2017-10-21T03:55:15.302Z,34.72
2017-10-21T03:56:27.921Z,34.55
2017-10-21T03:57:39.892Z,34.45
2017-10-21T03:58:52.541Z,34.55
2017-10-21T04:00:04.887Z,34.45
2017-10-21T04:01:17.208Z,34.64
2017-10-21T04:02:29.806Z,34.45
2017-10-21T04:03:42.120Z,34.55
2017-10-21T04:04:54.741Z,34.07
2017-10-21T04:06:07.389Z,34.07
2017-10-21T04:07:19.991Z,33.97
2017-10-21T04:08:32.636Z,34.07
2017-10-21T04:09:45.275Z,33.97
2017-10-21T04:10:57.915Z,34.07
2017-10-21T04:12:09.898Z,33.88
2017-10-21T04:13:22.520Z,34.07
2017-10-21T04:14:35.181Z,33.97
2017-10-21T04:15:47.829Z,34.07
2017-10-21T04:17:00.447Z,33.78
2017-10-21T04:18:12.752Z,33.59
2017-10-21T04:19:25.394Z,33.59
2017-10-21T04:20:38.030Z,33.59
2017-10-21T04:21:50.659Z,33.5
2017-10-21T04:23:02.980Z,33.4
2017-10-21T04:24:15.629Z,33.31
2017-10-21T04:25:27.925Z,33.4
2017-10-21T04:26:40.862Z,33.4
2017-10-21T04:27:53.159Z,33.4
2017-10-21T04:29:05.468Z,33.4
2017-10-21T04:30:18.133Z,33.31
2017-10-21T04:31:31.023Z,33.31
2017-10-21T04:32:43.341Z,33.4
2017-10-21T04:33:55.972Z,33.4
2017-10-21T04:35:08.624Z,33.59
2017-10-21T04:36:21.274Z,33.4
2017-10-21T04:37:33.907Z,33.4
2017-10-21T04:38:45.893Z,33.4
2017-10-21T04:39:58.193Z,33.5
2017-10-21T04:41:10.814Z,33.31
2017-10-21T04:42:22.810Z,33.31
2017-10-21T04:43:35.433Z,33.5
2017-10-21T04:44:47.739Z,33.59
2017-10-21T04:46:00.375Z,33.5
2017-10-21T04:47:12.998Z,33.59
2017-10-21T04:48:25.651Z,33.97
2017-10-21T04:49:38.310Z,33.97
2017-10-21T04:50:50.630Z,34.17
2017-10-21T04:52:03.274Z,34.07
2017-10-21T04:53:15.562Z,34.17
2017-10-21T04:54:28.191Z,34.07
2017-10-21T04:55:40.816Z,34.17
2017-10-21T04:56:53.464Z,33.88
2017-10-21T04:58:05.796Z,34.07
2017-10-21T04:59:18.465Z,34.07
2017-10-21T05:00:31.114Z,33.97
2017-10-21T05:01:43.764Z,34.17
2017-10-21T05:02:56.395Z,34.26
2017-10-21T05:04:08.973Z,34.17
2017-10-21T05:05:21.619Z,34.17
2017-10-21T05:06:33.971Z,34.36
2017-10-21T05:07:46.596Z,34.36
2017-10-21T05:08:59.245Z,34.36
2017-10-21T05:10:11.559Z,34.45
2017-10-21T05:11:24.205Z,34.36
2017-10-21T05:12:36.525Z,34.36
2017-10-21T05:13:49.140Z,34.26
2017-10-21T05:15:01.766Z,34.17
2017-10-21T05:16:14.400Z,34.26
2017-10-21T05:17:26.737Z,34.07
2017-10-21T05:18:39.396Z,34.07
2017-10-21T05:19:51.690Z,34.17
2017-10-21T05:21:04.041Z,34.36
2017-10-21T05:22:16.341Z,34.26
2017-10-21T05:23:28.978Z,34.17
2017-10-21T05:24:41.303Z,33.97
2017-10-21T05:25:53.648Z,34.07
2017-10-21T05:27:05.947Z,34.17
2017-10-21T05:28:18.614Z,34.17
2017-10-21T05:29:30.935Z,34.07
2017-10-21T05:30:43.566Z,33.97
2017-10-21T05:31:56.219Z,34.17
2017-10-21T05:33:08.512Z,34.17
2017-10-21T05:34:21.153Z,34.17
2017-10-21T05:35:33.785Z,34.07
2017-10-21T05:36:46.431Z,34.17
2017-10-21T05:37:58.709Z,34.17
2017-10-21T05:39:11.329Z,33.88
2017-10-21T05:40:23.930Z,34.07
2017-10-21T05:41:36.570Z,33.88
2017-10-21T05:42:49.222Z,34.07
2017-10-21T05:44:01.537Z,34.07
2017-10-21T05:45:13.829Z,34.07
2017-10-21T05:46:26.453Z,34.07
2017-10-21T05:47:39.119Z,34.07
2017-10-21T05:48:51.419Z,34.07
2017-10-21T05:50:04.044Z,34.17
2017-10-21T05:51:16.685Z,34.17
2017-10-21T05:52:28.960Z,33.88
2017-10-21T05:53:41.618Z,33.88
2017-10-21T05:54:53.597Z,33.97
2017-10-21T05:56:05.898Z,33.97
2017-10-21T05:57:18.520Z,33.97
2017-10-21T05:58:31.458Z,33.97
2017-10-21T05:59:43.476Z,33.88
2017-10-21T06:00:55.452Z,33.88
2017-10-21T06:02:07.764Z,33.88
2017-10-21T06:03:20.067Z,33.97
2017-10-21T06:04:32.689Z,33.97
2017-10-21T06:05:45.033Z,33.97
2017-10-21T06:06:57.650Z,34.07
2017-10-21T06:08:10.279Z,33.97
2017-10-21T06:09:22.609Z,33.88
2017-10-21T06:10:34.574Z,33.78
2017-10-21T06:11:46.907Z,33.88
2017-10-21T06:12:59.206Z,33.4
2017-10-21T06:14:11.524Z,33.5
2017-10-21T06:15:23.524Z,33.59
2017-10-21T06:16:35.823Z,33.5
2017-10-21T06:17:48.457Z,33.5
2017-10-21T06:19:01.081Z,33.5
2017-10-21T06:20:13.382Z,33.4
2017-10-21T06:21:25.073Z,33.4
2017-10-21T06:22:37.365Z,33.4
2017-10-21T06:23:49.975Z,33.4
2017-10-21T06:25:02.303Z,33.4
2017-10-21T06:26:14.950Z,33.4
2017-10-21T06:27:27.585Z,33.31
2017-10-21T06:28:40.218Z,33.4
2017-10-21T06:29:52.510Z,33.14
2017-10-21T06:31:04.821Z,33.31
2017-10-21T06:32:16.844Z,32.83
2017-10-21T06:33:29.467Z,32.75
2017-10-21T06:34:41.807Z,32.85
2017-10-21T06:35:54.423Z,32.45
2017-10-21T06:37:06.440Z,32.66
2017-10-21T06:38:19.066Z,32.56
2017-10-21T06:39:31.690Z,32.66
2017-10-21T06:40:44.004Z,32.47
2017-10-21T06:41:56.557Z,32.28
2017-10-21T06:43:09.199Z,32.18
2017-10-21T06:44:21.504Z,32.18
2017-10-21T06:45:33.860Z,32.28
2017-10-21T06:46:46.506Z,32.37
2017-10-21T06:47:58.497Z,32.47
2017-10-21T06:49:11.144Z,32.18
2017-10-21T06:50:23.167Z,32.18
2017-10-21T06:51:35.461Z,32.28
2017-10-21T06:52:47.780Z,32.18
2017-10-21T06:54:00.410Z,32.28
2017-10-21T06:55:13.033Z,32.28
2017-10-21T06:56:25.326Z,32.28
2017-10-21T06:57:37.639Z,32.09
2017-10-21T06:58:49.332Z,32.28
2017-10-21T07:00:01.317Z,32.09
2017-10-21T07:01:13.984Z,32.28
2017-10-21T07:02:26.629Z,32.28
2017-10-21T07:03:38.642Z,32.37
2017-10-21T07:04:51.262Z,32.37
2017-10-21T07:06:03.237Z,32.47
2017-10-21T07:07:15.192Z,32.18
2017-10-21T07:08:27.809Z,32.18
2017-10-21T07:09:40.119Z,32.47
2017-10-21T07:10:52.441Z,32.56
2017-10-21T07:12:04.438Z,32.56
2017-10-21T07:13:17.064Z,32.66
2017-10-21T07:14:29.624Z,32.66
2017-10-21T07:15:42.260Z,32.47
2017-10-21T07:16:54.877Z,32.56
2017-10-21T07:18:07.201Z,32.48
2017-10-21T07:19:19.543Z,32.29
2017-10-21T07:20:31.872Z,32.48
2017-10-21T07:21:44.195Z,32.29
2017-10-21T07:22:56.822Z,32.2
2017-10-21T07:24:09.123Z,32.2
2017-10-21T07:25:21.464Z,31.92
2017-10-21T07:26:34.099Z,32.1
2017-10-21T07:27:46.086Z,32.01
2017-10-21T07:28:58.378Z,32.01
2017-10-21T07:30:10.996Z,32.01
2017-10-21T07:31:23.368Z,32.01
2017-10-21T07:32:35.695Z,32.01
2017-10-21T07:33:48.317Z,31.72
2017-10-21T07:35:00.961Z,31.82
2017-10-21T07:36:13.573Z,31.53
2017-10-21T07:37:26.182Z,31.63
2017-10-21T07:38:38.827Z,31.63
2017-10-21T07:39:51.157Z,31.53
2017-10-21T07:41:03.790Z,31.63
2017-10-21T07:42:15.785Z,31.63
2017-10-21T07:43:28.406Z,31.74
2017-10-21T07:44:40.723Z,32.03
2017-10-21T07:45:53.348Z,32.03
2017-10-21T07:47:06.274Z,32.12
2017-10-21T07:48:18.894Z,32.4
2017-10-21T07:49:31.581Z,32.5
2017-10-21T07:50:44.203Z,32.21
2017-10-21T07:51:56.499Z,32.6
2017-10-21T07:53:08.799Z,32.5
2017-10-21T07:54:21.097Z,32.69
2017-10-21T07:55:33.412Z,32.21
2017-10-21T07:56:45.782Z,32.31
2017-10-21T07:57:58.428Z,32.21
2017-10-21T07:59:11.051Z,32.31
2017-10-21T08:00:23.698Z,32.31
2017-10-21T08:01:36.011Z,32.4
2017-10-21T08:02:48.629Z,32.21
2017-10-21T08:04:00.942Z,32.79
2017-10-21T08:05:13.248Z,32.69
2017-10-21T08:06:25.869Z,32.6
2017-10-21T08:07:38.210Z,32.6
2017-10-21T08:08:50.197Z,32.79
2017-10-21T08:10:02.814Z,32.61
2017-10-21T08:11:15.497Z,32.88
2017-10-21T08:12:27.819Z,33.26
2017-10-21T08:13:40.474Z,33.37
2017-10-21T08:14:52.446Z,33.28
2017-10-21T08:16:04.764Z,33.57
2017-10-21T08:17:17.401Z,33.37
2017-10-21T08:18:29.710Z,33.47
2017-10-21T08:19:42.254Z,33.85
2017-10-21T08:20:54.245Z,34.61
2017-10-21T08:22:06.893Z,34.71
2017-10-21T08:23:19.178Z,34.52
2017-10-21T08:24:31.163Z,34.61
2017-10-21T08:25:43.495Z,34.9
2017-10-21T08:26:56.143Z,34.71
2017-10-21T08:28:08.799Z,34.42
2017-10-21T08:29:21.415Z,34.52
2017-10-21T08:30:33.759Z,34.52
2017-10-21T08:31:46.386Z,34.71
2017-10-21T08:32:59.026Z,34.61
2017-10-21T08:34:11.336Z,35
2017-10-21T08:35:23.972Z,35
2017-10-21T08:36:35.965Z,35
2017-10-21T08:37:48.606Z,35.19
2017-10-21T08:39:00.910Z,35.28
2017-10-21T08:40:13.571Z,35.38
2017-10-21T08:41:26.204Z,35.38
2017-10-21T08:42:38.885Z,35.57
2017-10-21T08:43:51.202Z,35.86
2017-10-21T08:45:03.205Z,35.95
2017-10-21T08:46:15.835Z,36.14
2017-10-21T08:47:28.471Z,36.9
2017-10-21T08:48:40.786Z,36.9
2017-10-21T08:49:52.796Z,36.9
2017-10-21T08:51:04.811Z,37.1
2017-10-21T08:52:17.452Z,37.76
2017-10-21T08:53:29.752Z,38.05
2017-10-21T08:54:42.062Z,38.43
2017-10-21T08:55:54.697Z,40.05
2017-10-21T08:57:07.347Z,39.67
2017-10-21T08:58:20.028Z,39.95
2017-10-21T08:59:32.006Z,39.67
2017-10-21T09:00:44.669Z,39.95
2017-10-21T09:01:57.277Z,39.86
2017-10-21T09:03:10.189Z,40.53
2017-10-21T09:04:22.855Z,40.05
2017-10-21T09:05:35.484Z,39.58
2017-10-21T09:06:48.106Z,39
2017-10-21T09:08:00.401Z,38.53
2017-10-21T09:09:12.725Z,37.95
2017-10-21T09:10:25.020Z,38.34
2017-10-21T09:11:37.683Z,37.76
2017-10-21T09:12:50.321Z,38.15
2017-10-21T09:14:02.954Z,37.76
2017-10-21T09:15:15.575Z,37.76
2017-10-21T09:16:27.895Z,38.34
2017-10-21T09:17:40.516Z,38.62
2017-10-21T09:18:52.813Z,39.02
2017-10-21T09:20:05.415Z,39.48
2017-10-21T09:21:17.728Z,39.78
2017-10-21T09:22:30.349Z,39.78
2017-10-21T09:23:42.693Z,39.98
2017-10-21T09:24:54.666Z,40.07
2017-10-21T09:26:07.331Z,39.76
2017-10-21T09:27:19.982Z,41.31
2017-10-21T09:28:32.608Z,41.5
2017-10-21T09:29:44.593Z,41.41
2017-10-21T09:30:57.242Z,41.22
2017-10-21T09:32:09.216Z,42.55
2017-10-21T09:33:21.839Z,42.93
2017-10-21T09:34:34.159Z,43.22
2017-10-21T09:35:46.850Z,44.27
2017-10-21T09:36:59.187Z,43.51
2017-10-21T09:38:11.812Z,42.93
2017-10-21T09:39:23.830Z,42.36
2017-10-21T09:40:35.805Z,41.69
2017-10-21T09:41:48.427Z,41.6
2017-10-21T09:43:00.729Z,41.79
2017-10-21T09:44:13.373Z,41.41
2017-10-21T09:45:26.014Z,41.31
2017-10-21T09:46:38.662Z,41.41
2017-10-21T09:47:50.988Z,42.08
2017-10-21T09:49:03.304Z,42.36
2017-10-21T09:50:15.922Z,43.03
2017-10-21T09:51:27.915Z,43.6
2017-10-21T09:52:40.548Z,45.51
2017-10-21T09:53:53.206Z,45.7
2017-10-21T09:55:05.847Z,45.32
2017-10-21T09:56:18.168Z,44.94
2017-10-21T09:57:30.782Z,44.17
2017-10-21T09:58:43.097Z,43.22
2017-10-21T09:59:55.727Z,42.93
2017-10-21T10:01:08.073Z,42.55
2017-10-21T10:02:20.772Z,42.65
2017-10-21T10:03:33.096Z,42.74
2017-10-21T10:04:45.726Z,43.13
2017-10-21T10:05:58.383Z,42.84
2017-10-21T10:07:11.015Z,42.74
2017-10-21T10:08:23.353Z,42.65
2017-10-21T10:09:35.682Z,42.65
2017-10-21T10:10:48.304Z,43.79
2017-10-21T10:12:00.291Z,44.65
2017-10-21T10:13:12.932Z,43.7
2017-10-21T10:14:25.211Z,45.22
2017-10-21T10:15:37.511Z,47.42
2017-10-21T10:16:49.823Z,48.18
2017-10-21T10:18:02.463Z,49.8
2017-10-21T10:19:14.698Z,50.09
2017-10-21T10:20:27.343Z,51.23
2017-10-21T10:21:39.708Z,50.28
2017-10-21T10:22:52.029Z,51.04
2017-10-21T10:24:04.001Z,50.67
2017-10-21T10:25:16.651Z,49.93
2017-10-21T10:26:28.668Z,48.78
2017-10-21T10:27:40.986Z,48.3
2017-10-21T10:28:53.629Z,48.39
2017-10-21T10:30:05.632Z,48.3
2017-10-21T10:31:17.977Z,48.39
2017-10-21T10:32:30.610Z,50.02
2017-10-21T10:33:43.271Z,51.35
2017-10-21T10:34:55.607Z,51.54
2017-10-21T10:36:07.912Z,50.69
2017-10-21T10:37:20.236Z,53.17
2017-10-21T10:38:32.218Z,52.79
2017-10-21T10:39:44.519Z,52.98
2017-10-21T10:40:57.090Z,52.31
2017-10-21T10:42:09.062Z,52.22
2017-10-21T10:43:21.029Z,52.98
2017-10-21T10:44:33.329Z,54.03
2017-10-21T10:45:45.947Z,56.89
2017-10-21T10:46:58.225Z,56.7
2017-10-21T10:48:10.869Z,57.75
2017-10-21T10:49:23.501Z,57.94
2017-10-21T10:50:36.134Z,58.99
2017-10-21T10:51:48.129Z,59.95
2017-10-21T10:53:00.421Z,58.7
2017-10-21T10:54:13.066Z,56.8
2017-10-21T10:55:25.709Z,55.75
2017-10-21T10:56:38.364Z,56.04
2017-10-21T10:57:51.028Z,58.04
2017-10-21T10:59:03.325Z,57.46
2017-10-21T11:00:15.620Z,57.18
2017-10-21T11:01:28.253Z,56.6
2017-10-21T11:02:41.156Z,55.36
2017-10-21T11:03:53.486Z,58.23
2017-10-21T11:05:06.145Z,58.61
2017-10-21T11:06:18.123Z,57.94
2017-10-21T11:07:30.782Z,58.99
2017-10-21T11:08:42.768Z,58.7
2017-10-21T11:09:55.456Z,58.99
2017-10-21T11:11:07.752Z,58.33
2017-10-21T11:12:19.754Z,56.89
2017-10-21T11:13:31.428Z,57.18
2017-10-21T11:14:44.075Z,56.63
2017-10-21T11:15:56.737Z,55.49
2017-10-21T11:17:09.410Z,56.25
2017-10-21T11:18:21.735Z,55.49
2017-10-21T11:19:34.397Z,55.77
2017-10-21T11:20:46.720Z,55.11
2017-10-21T11:21:59.366Z,55.2
2017-10-21T11:23:12.007Z,55.77
2017-10-21T11:24:24.321Z,55.68
2017-10-21T11:25:36.954Z,55.11
2017-10-21T11:26:49.604Z,55.2
2017-10-21T11:28:01.608Z,54.63
2017-10-21T11:29:13.274Z,55.2
2017-10-21T11:30:25.889Z,55.87
2017-10-21T11:31:38.232Z,56.92
2017-10-21T11:32:50.527Z,58.16
2017-10-21T11:34:02.503Z,56.82
2017-10-21T11:35:14.502Z,58.26
2017-10-21T11:36:27.137Z,58.36
2017-10-21T11:37:39.131Z,58.93
2017-10-21T11:38:51.457Z,57.21
2017-10-21T11:40:03.792Z,56.54
2017-10-21T11:41:15.797Z,56.35
2017-10-21T11:42:28.456Z,56.82
2017-10-21T11:43:40.805Z,59.12
2017-10-21T11:44:53.127Z,58.54
2017-10-21T11:46:05.446Z,57.31
2017-10-21T11:47:17.101Z,57.21
2017-10-21T11:48:29.403Z,58.54
2017-10-21T11:49:41.710Z,58.26
2017-10-21T11:50:54.324Z,59.5
2017-10-21T11:52:06.654Z,58.07
2017-10-21T11:53:18.979Z,56.82
2017-10-21T11:54:31.602Z,57.5
2017-10-21T11:55:44.245Z,57.11
2017-10-21T11:56:56.538Z,58.64
2017-10-21T11:58:09.207Z,58.07
2017-10-21T11:59:21.857Z,57.31
2017-10-21T12:00:34.207Z,60.55
2017-10-21T12:01:46.543Z,60.64
2017-10-21T12:02:59.182Z,61.69
2017-10-21T12:04:11.817Z,59.59
2017-10-21T12:05:24.435Z,63.23
2017-10-21T12:06:37.074Z,63.99
2017-10-21T12:07:49.393Z,63.99
2017-10-21T12:09:01.063Z,61.13
2017-10-21T12:10:13.700Z,61.6
2017-10-21T12:11:26.335Z,60.74
2017-10-21T12:12:39.010Z,60.17
2017-10-21T12:13:51.629Z,59.78
2017-10-21T12:15:04.283Z,58.45
2017-10-21T12:16:16.969Z,59.22
2017-10-21T12:17:29.265Z,61.89
2017-10-21T12:18:41.590Z,59.98
2017-10-21T12:19:53.897Z,60.01
2017-10-21T12:21:05.895Z,60.74
2017-10-21T12:22:18.218Z,59.53
2017-10-21T12:23:30.849Z,58.64
2017-10-21T12:24:43.478Z,59.12
2017-10-21T12:25:55.169Z,58.73
2017-10-21T12:27:07.837Z,59.53
2017-10-21T12:28:20.156Z,59.98
2017-10-21T12:29:32.800Z,59.15
2017-10-21T12:30:45.083Z,59.78
2017-10-21T12:31:57.735Z,58.95
2017-10-21T12:33:10.379Z,64.78
2017-10-21T12:34:23.036Z,64.75
2017-10-21T12:35:35.325Z,65.14
2017-10-21T12:36:47.648Z,63.54
2017-10-21T12:38:00.287Z,63.35
2017-10-21T12:39:12.589Z,61.44
2017-10-21T12:40:25.484Z,60.2
2017-10-21T12:41:38.126Z,60.3
2017-10-21T12:42:50.454Z,59.63
2017-10-21T12:44:02.448Z,59.91
2017-10-21T12:45:14.776Z,62.59
2017-10-21T12:46:27.104Z,62.68
2017-10-21T12:47:39.082Z,64.02
2017-10-21T12:48:51.738Z,68.51
2017-10-21T12:50:04.047Z,70.2
2017-10-21T12:51:16.673Z,66.89
2017-10-21T12:52:29.331Z,67.05
2017-10-21T12:53:41.631Z,65.9
2017-10-21T12:54:54.255Z,67.71
2017-10-21T12:56:06.577Z,70.42
2017-10-21T12:57:18.890Z,69.34
2017-10-21T12:58:31.511Z,67.33
2017-10-21T12:59:43.821Z,66.47
2017-10-21T13:00:56.457Z,68.38
2017-10-21T13:02:08.361Z,67.33
2017-10-21T13:03:20.684Z,67.62
2017-10-21T13:04:32.673Z,68.7
2017-10-21T13:05:45.320Z,65.84
2017-10-21T13:06:57.955Z,65.07
2017-10-21T13:08:10.585Z,67.46
2017-10-21T13:09:22.908Z,69.56
2017-10-21T13:10:35.231Z,66.5
2017-10-21T13:11:47.225Z,64.5
2017-10-21T13:12:59.571Z,65.36
2017-10-21T13:14:11.881Z,72.24
2017-10-21T13:15:24.501Z,71.28
2017-10-21T13:16:36.823Z,68.51
2017-10-21T13:17:48.490Z,67.55
2017-10-21T13:19:00.468Z,71.09
2017-10-21T13:20:12.788Z,74.91
2017-10-21T13:21:25.414Z,73.96
2017-10-21T13:22:37.748Z,78.93
2017-10-21T13:23:50.065Z,79.88
2017-10-21T13:25:02.702Z,82.18
2017-10-21T13:26:14.696Z,84.56
2017-10-21T13:27:27.039Z,79.12
2017-10-21T13:28:39.681Z,80.74
2017-10-21T13:29:52.318Z,80.93
2017-10-21T13:31:04.951Z,86.96
2017-10-21T13:32:17.573Z,87.72
2017-10-21T13:33:29.865Z,83.42
2017-10-21T13:34:42.515Z,87.05
2017-10-21T13:35:55.160Z,85.9
2017-10-21T13:37:06.830Z,85.33
2017-10-21T13:38:19.475Z,80.46
2017-10-21T13:39:32.161Z,83.23
2017-10-21T13:40:44.491Z,81.7
2017-10-21T13:41:56.764Z,80.84
2017-10-21T13:43:08.779Z,93.55
2017-10-21T13:44:20.770Z,83.13
2017-10-21T13:45:33.402Z,80.27
2017-10-21T13:46:46.045Z,80.65
2017-10-21T13:47:58.668Z,85.81
2017-10-21T13:49:11.011Z,92.79
2017-10-21T13:50:23.306Z,84.95
2017-10-21T13:51:35.955Z,88.96
2017-10-21T13:52:48.600Z,84.76
2017-10-21T13:54:00.891Z,83.33
2017-10-21T13:55:13.203Z,84.19
2017-10-21T13:56:25.190Z,91.16
2017-10-21T13:57:37.805Z,97.85
2017-10-21T13:58:50.099Z,91.06
2017-10-21T14:00:02.750Z,90.68
2017-10-21T14:01:15.047Z,88.29
2017-10-21T14:02:27.342Z,86.1
2017-10-21T14:03:39.983Z,84.28
2017-10-21T14:04:52.275Z,85.42
2017-10-21T14:06:04.600Z,84.76
2017-10-21T14:07:17.258Z,83.51
2017-10-21T14:08:29.871Z,89.53
2017-10-21T14:09:41.862Z,88.92
2017-10-21T14:10:54.198Z,86
2017-10-21T14:12:06.532Z,84.76
2017-10-21T14:13:18.851Z,83.9
2017-10-21T14:14:31.172Z,82.84
2017-10-21T14:15:43.489Z,83.18
2017-10-21T14:16:55.806Z,84.43
2017-10-21T14:18:08.701Z,83.9
2017-10-21T14:19:20.377Z,87.82
2017-10-21T14:20:32.711Z,84.23
2017-10-21T14:21:45.035Z,86.63
2017-10-21T14:22:57.344Z,85.96
2017-10-21T14:24:10.011Z,83.67
2017-10-21T14:25:22.668Z,83.38
2017-10-21T14:26:34.950Z,83.18
2017-10-21T14:27:46.935Z,86.05
2017-10-21T14:28:58.941Z,88.06
2017-10-21T14:30:11.592Z,84.43
2017-10-21T14:31:23.908Z,83.28
2017-10-21T14:32:36.250Z,83.09
2017-10-21T14:33:48.573Z,85.48
2017-10-21T14:35:01.214Z,85.58
2017-10-21T14:36:13.543Z,85.86
2017-10-21T14:37:25.531Z,83.09
2017-10-21T14:38:37.224Z,83.47
2017-10-21T14:39:49.203Z,82.32
2017-10-21T14:41:01.502Z,82.81
2017-10-21T14:42:13.794Z,83.95
2017-10-21T14:43:26.132Z,83
2017-10-21T14:44:38.760Z,83.09
2017-10-21T14:45:51.077Z,82.04
2017-10-21T14:47:03.718Z,81.95
2017-10-21T14:48:16.349Z,82.61
2017-10-21T14:49:28.364Z,83.18
2017-10-21T14:50:40.666Z,83.09
2017-10-21T14:51:52.355Z,85.34
2017-10-21T14:53:04.335Z,85.44
2017-10-21T14:54:16.651Z,88.2
2017-10-21T14:55:28.946Z,84.96
2017-10-21T14:56:41.277Z,84.1
2017-10-21T14:57:53.945Z,85.15
2017-10-21T14:59:06.583Z,85.34
2017-10-21T15:00:19.228Z,84.77
2017-10-21T15:01:31.575Z,90.5
2017-10-21T15:02:43.920Z,85.82
2017-10-21T15:03:56.562Z,88.2
2017-10-21T15:05:09.213Z,86.01
2017-10-21T15:06:21.860Z,85.15
2017-10-21T15:07:34.472Z,86.58
2017-10-21T15:08:46.448Z,88.3
2017-10-21T15:09:59.073Z,86.1
2017-10-21T15:11:11.733Z,85.91
2017-10-21T15:12:24.042Z,88.3
2017-10-21T15:13:36.674Z,86.1
2017-10-21T15:14:49.315Z,84
2017-10-21T15:16:01.971Z,85.82
2017-10-21T15:17:14.260Z,85.34
2017-10-21T15:18:26.558Z,85.05
2017-10-21T15:19:39.194Z,84.72
2017-10-21T15:20:51.845Z,84.25
2017-10-21T15:22:04.467Z,83.87
2017-10-21T15:23:16.452Z,83.87
2017-10-21T15:24:28.784Z,83.01
2017-10-21T15:25:41.128Z,85.58
2017-10-21T15:26:53.762Z,85.77
2017-10-21T15:28:06.072Z,84.72
2017-10-21T15:29:18.067Z,84.82
2017-10-21T15:30:30.391Z,85.49
2017-10-21T15:31:43.033Z,83.67
2017-10-21T15:32:55.341Z,83.01
2017-10-21T15:34:07.961Z,82.82
2017-10-21T15:35:20.619Z,83.77
2017-10-21T15:36:32.954Z,82.63
2017-10-21T15:37:44.940Z,82.34